sensor_id;sensor_type;location;lat;lon;timestamp;P1;durP1;ratioP1;P2;durP2;ratioP2
69917;SDS011;57203;42.672;23.334;2024-02-26T00:00:06;31.6;;;22.9;;
69917;SDS011;57203;42.672;23.334;2024-02-26T00:01:06;33.3;;;21.9;;
69917;SDS011;57203;42.672;23.334;2024-02-26T00:02:06;33.3;;;22.7;;
69917;SDS011;57203;42.672;23.334;2024-02-26T00:03:06;31.3;;;22.2;;
69917;SDS011;57203;42.672;23.334;2024-02-26T00:04:06;31.3;;;22.3;;
69917;SDS011;57203;42.672;23.334;2024-02-26T00:05:07;39.3;;;24.5;;
69917;SDS011;57203;42.672;23.334;2024-02-26T00:06:07;39.3;;;24.7;;
69917;SDS011;57203;42.672;23.334;2024-02-26T00:07:07;40.1;;;24.9;;
69917;SDS011;57203;42.672;23.334;2024-02-26T00:08:07;40.1;;;23.8;;
69917;SDS011;57203;42.672;23.334;2024-02-26T00:09:07;37.0;;;23.7;;
69917;SDS011;57203;42.672;23.334;2024-02-26T00:10:08;34.1;;;22.6;;
69917;SDS011;57203;42.672;23.334;2024-02-26T00:11:08;33.1;;;23.7;;
69917;SDS011;57203;42.672;23.334;2024-02-26T00:12:08;35.6;;;23.9;;
69917;SDS011;57203;42.672;23.334;2024-02-26T00:13:08;37.7;;;24.2;;
69917;SDS011;57203;42.672;23.334;2024-02-26T00:14:08;37.7;;;23.1;;
69917;SDS011;57203;42.672;23.334;2024-02-26T00:15:09;38.1;;;23.8;;
69917;SDS011;57203;42.672;23.334;2024-02-26T00:16:09;35.0;;;22.4;;
69917;SDS011;57203;42.672;23.334;2024-02-26T00:17:09;35.0;;;21.9;;
69917;SDS011;57203;42.672;23.334;2024-02-26T00:18:09;32.3;;;22.5;;
69917;SDS011;57203;42.672;23.334;2024-02-26T00:19:09;36.5;;;22.9;;
69917;SDS011;57203;42.672;23.334;2024-02-26T00:20:10;39.4;;;24.6;;
69917;SDS011;57203;42.672;23.334;2024-02-26T00:21:10;39.5;;;24.9;;
69917;SDS011;57203;42.672;23.334;2024-02-26T00:22:10;39.5;;;26.6;;
69917;SDS011;57203;42.672;23.334;2024-02-26T00:23:10;38.7;;;25.4;;
69917;SDS011;57203;42.672;23.334;2024-02-26T00:25:10;37.6;;;23.3;;
69917;SDS011;57203;42.672;23.334;2024-02-26T00:26:11;34.3;;;25.7;;
69917;SDS011;57203;42.672;23.334;2024-02-26T00:27:11;40.1;;;26.4;;
69917;SDS011;57203;42.672;23.334;2024-02-26T00:28:11;40.6;;;25.7;;
69917;SDS011;57203;42.672;23.334;2024-02-26T00:29:11;37.9;;;24.9;;
69917;SDS011;57203;42.672;23.334;2024-02-26T00:30:11;37.9;;;24.0;;
69917;SDS011;57203;42.672;23.334;2024-02-26T00:32:12;35.4;;;23.2;;
69917;SDS011;57203;42.672;23.334;2024-02-26T00:33:12;33.5;;;22.1;;
69917;SDS011;57203;42.672;23.334;2024-02-26T00:34:12;33.5;;;24.0;;
69917;SDS011;57203;42.672;23.334;2024-02-26T00:35:12;36.3;;;21.6;;
69917;SDS011;57203;42.672;23.334;2024-02-26T00:36:12;33.0;;;24.1;;
69917;SDS011;57203;42.672;23.334;2024-02-26T00:37:13;35.1;;;23.3;;
69917;SDS011;57203;42.672;23.334;2024-02-26T00:38:13;35.1;;;24.5;;
69917;SDS011;57203;42.672;23.334;2024-02-26T00:39:13;41.5;;;25.8;;
69917;SDS011;57203;42.672;23.334;2024-02-26T00:40:13;36.1;;;24.0;;
69917;SDS011;57203;42.672;23.334;2024-02-26T00:41:13;38.0;;;24.1;;
69917;SDS011;57203;42.672;23.334;2024-02-26T00:43:14;37.1;;;24.0;;
69917;SDS011;57203;42.672;23.334;2024-02-26T00:44:14;37.0;;;23.8;;
69917;SDS011;57203;42.672;23.334;2024-02-26T00:45:14;37.1;;;25.3;;
69917;SDS011;57203;42.672;23.334;2024-02-26T00:46:15;37.1;;;25.0;;
69917;SDS011;57203;42.672;23.334;2024-02-26T00:47:15;36.6;;;23.5;;
69917;SDS011;57203;42.672;23.334;2024-02-26T00:48:15;36.6;;;24.0;;
69917;SDS011;57203;42.672;23.334;2024-02-26T00:49:15;36.5;;;23.7;;
69917;SDS011;57203;42.672;23.334;2024-02-26T00:50:15;36.5;;;23.6;;
69917;SDS011;57203;42.672;23.334;2024-02-26T00:51:15;35.9;;;23.3;;
69917;SDS011;57203;42.672;23.334;2024-02-26T00:52:16;35.9;;;23.0;;
69917;SDS011;57203;42.672;23.334;2024-02-26T00:53:16;33.2;;;23.9;;
69917;SDS011;57203;42.672;23.334;2024-02-26T00:54:16;33.2;;;23.4;;
69917;SDS011;57203;42.672;23.334;2024-02-26T00:55:16;42.0;;;24.8;;
69917;SDS011;57203;42.672;23.334;2024-02-26T00:56:16;39.3;;;24.4;;
69917;SDS011;57203;42.672;23.334;2024-02-26T00:57:16;39.3;;;26.2;;
69917;SDS011;57203;42.672;23.334;2024-02-26T00:58:17;42.3;;;27.9;;
69917;SDS011;57203;42.672;23.334;2024-02-26T00:59:17;43.1;;;24.9;;
69917;SDS011;57203;42.672;23.334;2024-02-26T01:00:17;36.6;;;24.3;;
69917;SDS011;57203;42.672;23.334;2024-02-26T01:01:17;38.0;;;24.4;;
69917;SDS011;57203;42.672;23.334;2024-02-26T01:02:17;38.0;;;24.3;;
69917;SDS011;57203;42.672;23.334;2024-02-26T01:03:18;35.5;;;23.8;;
69917;SDS011;57203;42.672;23.334;2024-02-26T01:04:18;38.3;;;23.1;;
69917;SDS011;57203;42.672;23.334;2024-02-26T01:05:18;34.8;;;25.6;;
69917;SDS011;57203;42.672;23.334;2024-02-26T01:06:18;39.0;;;26.1;;
69917;SDS011;57203;42.672;23.334;2024-02-26T01:07:18;43.4;;;26.8;;
69917;SDS011;57203;42.672;23.334;2024-02-26T01:08:18;43.4;;;24.9;;
69917;SDS011;57203;42.672;23.334;2024-02-26T01:09:19;37.0;;;24.7;;
69917;SDS011;57203;42.672;23.334;2024-02-26T01:10:19;38.1;;;25.3;;
69917;SDS011;57203;42.672;23.334;2024-02-26T01:11:19;38.2;;;24.8;;
69917;SDS011;57203;42.672;23.334;2024-02-26T01:12:19;35.6;;;25.1;;
69917;SDS011;57203;42.672;23.334;2024-02-26T01:13:19;37.3;;;25.2;;
69917;SDS011;57203;42.672;23.334;2024-02-26T01:14:20;37.3;;;25.6;;
69917;SDS011;57203;42.672;23.334;2024-02-26T01:15:20;37.3;;;24.8;;
69917;SDS011;57203;42.672;23.334;2024-02-26T01:16:20;37.3;;;25.2;;
69917;SDS011;57203;42.672;23.334;2024-02-26T01:17:20;36.9;;;24.8;;
69917;SDS011;57203;42.672;23.334;2024-02-26T01:18:20;36.9;;;25.3;;
69917;SDS011;57203;42.672;23.334;2024-02-26T01:19:21;39.7;;;25.9;;
69917;SDS011;57203;42.672;23.334;2024-02-26T01:20:21;38.8;;;26.2;;
69917;SDS011;57203;42.672;23.334;2024-02-26T01:21:21;38.8;;;26.6;;
69917;SDS011;57203;42.672;23.334;2024-02-26T01:22:21;37.6;;;25.1;;
69917;SDS011;57203;42.672;23.334;2024-02-26T01:23:21;37.6;;;25.4;;
69917;SDS011;57203;42.672;23.334;2024-02-26T01:24:21;39.1;;;26.1;;
69917;SDS011;57203;42.672;23.334;2024-02-26T01:25:22;41.3;;;25.5;;
69917;SDS011;57203;42.672;23.334;2024-02-26T01:26:22;38.8;;;25.3;;
69917;SDS011;57203;42.672;23.334;2024-02-26T01:27:22;35.8;;;25.1;;
69917;SDS011;57203;42.672;23.334;2024-02-26T01:28:22;39.2;;;25.3;;
69917;SDS011;57203;42.672;23.334;2024-02-26T01:29:22;37.0;;;24.2;;
69917;SDS011;57203;42.672;23.334;2024-02-26T01:30:23;36.0;;;24.1;;
69917;SDS011;57203;42.672;23.334;2024-02-26T01:31:23;36.0;;;24.6;;
69917;SDS011;57203;42.672;23.334;2024-02-26T01:32:23;35.6;;;24.4;;
69917;SDS011;57203;42.672;23.334;2024-02-26T01:33:24;37.7;;;25.3;;
69917;SDS011;57203;42.672;23.334;2024-02-26T01:34:23;37.7;;;26.6;;
69917;SDS011;57203;42.672;23.334;2024-02-26T01:35:23;40.3;;;26.7;;
69917;SDS011;57203;42.672;23.334;2024-02-26T01:36:24;40.3;;;27.2;;
69917;SDS011;57203;42.672;23.334;2024-02-26T01:37:24;42.1;;;27.7;;
69917;SDS011;57203;42.672;23.334;2024-02-26T01:38:24;42.1;;;27.1;;
69917;SDS011;57203;42.672;23.334;2024-02-26T01:39:24;42.7;;;27.4;;
69917;SDS011;57203;42.672;23.334;2024-02-26T01:40:26;42.2;;;27.8;;
69917;SDS011;57203;42.672;23.334;2024-02-26T01:41:25;42.2;;;27.2;;
69917;SDS011;57203;42.672;23.334;2024-02-26T01:42:25;42.4;;;27.7;;
69917;SDS011;57203;42.672;23.334;2024-02-26T01:43:25;42.5;;;26.9;;
69917;SDS011;57203;42.672;23.334;2024-02-26T01:44:26;40.4;;;27.5;;
69917;SDS011;57203;42.672;23.334;2024-02-26T01:45:25;42.7;;;26.9;;
69917;SDS011;57203;42.672;23.334;2024-02-26T01:46:25;42.7;;;26.4;;
69917;SDS011;57203;42.672;23.334;2024-02-26T01:47:26;39.1;;;27.3;;
69917;SDS011;57203;42.672;23.334;2024-02-26T01:48:26;41.2;;;25.8;;
69917;SDS011;57203;42.672;23.334;2024-02-26T01:49:26;38.5;;;28.3;;
69917;SDS011;57203;42.672;23.334;2024-02-26T01:50:26;41.1;;;27.2;;
69917;SDS011;57203;42.672;23.334;2024-02-26T01:51:27;41.1;;;27.7;;
69917;SDS011;57203;42.672;23.334;2024-02-26T01:52:27;41.7;;;26.8;;
69917;SDS011;57203;42.672;23.334;2024-02-26T01:53:27;37.9;;;27.3;;
69917;SDS011;57203;42.672;23.334;2024-02-26T01:55:27;41.2;;;28.6;;
69917;SDS011;57203;42.672;23.334;2024-02-26T01:57:28;44.8;;;28.1;;
69917;SDS011;57203;42.672;23.334;2024-02-26T01:58:28;39.5;;;26.4;;
69917;SDS011;57203;42.672;23.334;2024-02-26T01:59:28;39.5;;;27.4;;
69917;SDS011;57203;42.672;23.334;2024-02-26T02:02:29;43.6;;;26.8;;
69917;SDS011;57203;42.672;23.334;2024-02-26T02:03:29;39.7;;;29.6;;
69917;SDS011;57203;42.672;23.334;2024-02-26T02:04:29;44.6;;;28.7;;
69917;SDS011;57203;42.672;23.334;2024-02-26T02:05:29;43.9;;;27.6;;
69917;SDS011;57203;42.672;23.334;2024-02-26T02:06:29;42.5;;;28.7;;
69917;SDS011;57203;42.672;23.334;2024-02-26T02:07:29;44.4;;;28.2;;
69917;SDS011;57203;42.672;23.334;2024-02-26T02:08:30;45.6;;;29.3;;
69917;SDS011;57203;42.672;23.334;2024-02-26T02:09:30;43.3;;;28.0;;
69917;SDS011;57203;42.672;23.334;2024-02-26T02:10:30;38.9;;;27.0;;
69917;SDS011;57203;42.672;23.334;2024-02-26T02:11:30;42.2;;;27.8;;
69917;SDS011;57203;42.672;23.334;2024-02-26T02:12:31;42.2;;;26.3;;
69917;SDS011;57203;42.672;23.334;2024-02-26T02:13:31;41.8;;;26.9;;
69917;SDS011;57203;42.672;23.334;2024-02-26T02:14:31;40.9;;;26.5;;
69917;SDS011;57203;42.672;23.334;2024-02-26T02:15:31;38.7;;;26.3;;
69917;SDS011;57203;42.672;23.334;2024-02-26T02:16:31;38.7;;;27.6;;
69917;SDS011;57203;42.672;23.334;2024-02-26T02:17:31;40.2;;;26.7;;
69917;SDS011;57203;42.672;23.334;2024-02-26T02:18:32;40.9;;;27.1;;
69917;SDS011;57203;42.672;23.334;2024-02-26T02:19:32;42.1;;;27.7;;
69917;SDS011;57203;42.672;23.334;2024-02-26T02:21:32;42.5;;;27.1;;
69917;SDS011;57203;42.672;23.334;2024-02-26T02:22:32;39.3;;;25.1;;
69917;SDS011;57203;42.672;23.334;2024-02-26T02:23:32;38.2;;;25.4;;
69917;SDS011;57203;42.672;23.334;2024-02-26T02:24:33;38.2;;;26.4;;
69917;SDS011;57203;42.672;23.334;2024-02-26T02:25:33;41.6;;;26.6;;
69917;SDS011;57203;42.672;23.334;2024-02-26T02:26:33;35.7;;;24.9;;
69917;SDS011;57203;42.672;23.334;2024-02-26T02:27:33;37.1;;;25.2;;
69917;SDS011;57203;42.672;23.334;2024-02-26T02:28:33;37.1;;;26.3;;
69917;SDS011;57203;42.672;23.334;2024-02-26T02:29:34;37.0;;;24.6;;
69917;SDS011;57203;42.672;23.334;2024-02-26T02:30:34;37.0;;;26.0;;
69917;SDS011;57203;42.672;23.334;2024-02-26T02:31:34;39.6;;;26.1;;
69917;SDS011;57203;42.672;23.334;2024-02-26T02:32:35;37.9;;;25.4;;
69917;SDS011;57203;42.672;23.334;2024-02-26T02:33:34;37.9;;;24.7;;
69917;SDS011;57203;42.672;23.334;2024-02-26T02:34:35;41.8;;;25.7;;
69917;SDS011;57203;42.672;23.334;2024-02-26T02:35:35;41.8;;;24.7;;
69917;SDS011;57203;42.672;23.334;2024-02-26T02:36:35;37.0;;;24.0;;
69917;SDS011;57203;42.672;23.334;2024-02-26T02:37:35;37.7;;;24.1;;
69917;SDS011;57203;42.672;23.334;2024-02-26T02:38:35;36.3;;;23.9;;
69917;SDS011;57203;42.672;23.334;2024-02-26T02:39:36;36.3;;;22.5;;
69917;SDS011;57203;42.672;23.334;2024-02-26T02:40:36;36.9;;;24.0;;
69917;SDS011;57203;42.672;23.334;2024-02-26T02:41:36;36.9;;;24.5;;
69917;SDS011;57203;42.672;23.334;2024-02-26T02:42:36;36.9;;;23.3;;
69917;SDS011;57203;42.672;23.334;2024-02-26T02:43:36;35.6;;;24.1;;
69917;SDS011;57203;42.672;23.334;2024-02-26T02:44:36;38.3;;;25.1;;
69917;SDS011;57203;42.672;23.334;2024-02-26T02:45:37;39.6;;;24.1;;
69917;SDS011;57203;42.672;23.334;2024-02-26T02:46:37;39.6;;;23.7;;
69917;SDS011;57203;42.672;23.334;2024-02-26T02:47:37;35.3;;;23.0;;
69917;SDS011;57203;42.672;23.334;2024-02-26T02:48:37;35.3;;;23.4;;
69917;SDS011;57203;42.672;23.334;2024-02-26T02:49:37;36.2;;;23.3;;
69917;SDS011;57203;42.672;23.334;2024-02-26T02:50:38;33.7;;;24.2;;
69917;SDS011;57203;42.672;23.334;2024-02-26T02:51:38;41.4;;;24.3;;
69917;SDS011;57203;42.672;23.334;2024-02-26T02:52:38;40.6;;;24.2;;
69917;SDS011;57203;42.672;23.334;2024-02-26T02:53:38;40.6;;;23.5;;
69917;SDS011;57203;42.672;23.334;2024-02-26T02:54:38;34.1;;;23.8;;
69917;SDS011;57203;42.672;23.334;2024-02-26T02:55:39;36.7;;;24.3;;
69917;SDS011;57203;42.672;23.334;2024-02-26T02:56:39;33.1;;;23.4;;
69917;SDS011;57203;42.672;23.334;2024-02-26T02:57:39;33.1;;;24.3;;
69917;SDS011;57203;42.672;23.334;2024-02-26T02:58:39;37.1;;;24.4;;
69917;SDS011;57203;42.672;23.334;2024-02-26T02:59:39;37.1;;;23.0;;
69917;SDS011;57203;42.672;23.334;2024-02-26T03:00:39;32.9;;;24.1;;
69917;SDS011;57203;42.672;23.334;2024-02-26T03:01:40;35.3;;;22.2;;
69917;SDS011;57203;42.672;23.334;2024-02-26T03:02:40;32.4;;;23.3;;
69917;SDS011;57203;42.672;23.334;2024-02-26T03:03:40;36.0;;;23.0;;
69917;SDS011;57203;42.672;23.334;2024-02-26T03:04:40;36.1;;;24.3;;
69917;SDS011;57203;42.672;23.334;2024-02-26T03:05:40;36.1;;;22.7;;
69917;SDS011;57203;42.672;23.334;2024-02-26T03:06:41;35.7;;;23.8;;
69917;SDS011;57203;42.672;23.334;2024-02-26T03:07:41;35.7;;;23.2;;
69917;SDS011;57203;42.672;23.334;2024-02-26T03:08:41;33.2;;;22.6;;
69917;SDS011;57203;42.672;23.334;2024-02-26T03:09:41;33.2;;;20.7;;
69917;SDS011;57203;42.672;23.334;2024-02-26T03:10:41;33.3;;;21.7;;
69917;SDS011;57203;42.672;23.334;2024-02-26T03:11:42;33.3;;;21.2;;
69917;SDS011;57203;42.672;23.334;2024-02-26T03:12:42;32.4;;;21.3;;
69917;SDS011;57203;42.672;23.334;2024-02-26T03:13:42;32.4;;;22.0;;
69917;SDS011;57203;42.672;23.334;2024-02-26T03:14:42;36.4;;;22.6;;
69917;SDS011;57203;42.672;23.334;2024-02-26T03:15:42;36.4;;;23.3;;
69917;SDS011;57203;42.672;23.334;2024-02-26T03:16:42;36.7;;;23.6;;
69917;SDS011;57203;42.672;23.334;2024-02-26T03:17:43;36.7;;;23.3;;
69917;SDS011;57203;42.672;23.334;2024-02-26T03:18:43;36.8;;;23.4;;
69917;SDS011;57203;42.672;23.334;2024-02-26T03:19:43;36.8;;;23.7;;
69917;SDS011;57203;42.672;23.334;2024-02-26T03:20:43;35.5;;;22.5;;
69917;SDS011;57203;42.672;23.334;2024-02-26T03:21:43;34.3;;;22.9;;
69917;SDS011;57203;42.672;23.334;2024-02-26T03:22:44;34.7;;;23.8;;
69917;SDS011;57203;42.672;23.334;2024-02-26T03:23:44;34.7;;;21.6;;
69917;SDS011;57203;42.672;23.334;2024-02-26T03:24:44;36.0;;;22.1;;
69917;SDS011;57203;42.672;23.334;2024-02-26T03:25:44;34.9;;;22.5;;
69917;SDS011;57203;42.672;23.334;2024-02-26T03:26:44;34.9;;;22.0;;
69917;SDS011;57203;42.672;23.334;2024-02-26T03:27:45;31.8;;;21.0;;
69917;SDS011;57203;42.672;23.334;2024-02-26T03:28:45;31.3;;;21.4;;
69917;SDS011;57203;42.672;23.334;2024-02-26T03:29:45;32.7;;;21.5;;
69917;SDS011;57203;42.672;23.334;2024-02-26T03:31:45;31.2;;;21.3;;
69917;SDS011;57203;42.672;23.334;2024-02-26T03:32:45;31.2;;;20.4;;
69917;SDS011;57203;42.672;23.334;2024-02-26T03:33:46;35.1;;;20.8;;
69917;SDS011;57203;42.672;23.334;2024-02-26T03:34:46;35.1;;;21.5;;
69917;SDS011;57203;42.672;23.334;2024-02-26T03:35:46;30.6;;;20.6;;
69917;SDS011;57203;42.672;23.334;2024-02-26T03:36:46;33.7;;;20.3;;
69917;SDS011;57203;42.672;23.334;2024-02-26T03:37:47;33.7;;;20.5;;
69917;SDS011;57203;42.672;23.334;2024-02-26T03:38:47;33.7;;;20.8;;
69917;SDS011;57203;42.672;23.334;2024-02-26T03:39:47;32.8;;;21.2;;
69917;SDS011;57203;42.672;23.334;2024-02-26T03:40:47;31.2;;;20.5;;
69917;SDS011;57203;42.672;23.334;2024-02-26T03:41:47;31.2;;;21.8;;
69917;SDS011;57203;42.672;23.334;2024-02-26T03:42:47;33.5;;;21.0;;
69917;SDS011;57203;42.672;23.334;2024-02-26T03:43:47;33.4;;;22.6;;
69917;SDS011;57203;42.672;23.334;2024-02-26T03:44:48;33.3;;;21.8;;
69917;SDS011;57203;42.672;23.334;2024-02-26T03:45:48;33.5;;;22.0;;
69917;SDS011;57203;42.672;23.334;2024-02-26T03:46:48;31.6;;;21.1;;
69917;SDS011;57203;42.672;23.334;2024-02-26T03:47:48;31.6;;;22.0;;
69917;SDS011;57203;42.672;23.334;2024-02-26T03:48:48;33.7;;;22.6;;
69917;SDS011;57203;42.672;23.334;2024-02-26T03:49:49;34.9;;;22.7;;
69917;SDS011;57203;42.672;23.334;2024-02-26T03:51:49;33.1;;;21.1;;
69917;SDS011;57203;42.672;23.334;2024-02-26T03:52:49;30.2;;;22.3;;
69917;SDS011;57203;42.672;23.334;2024-02-26T03:53:49;33.4;;;22.1;;
69917;SDS011;57203;42.672;23.334;2024-02-26T03:54:49;33.4;;;23.0;;
69917;SDS011;57203;42.672;23.334;2024-02-26T03:55:50;34.7;;;23.6;;
69917;SDS011;57203;42.672;23.334;2024-02-26T03:56:50;37.8;;;25.3;;
69917;SDS011;57203;42.672;23.334;2024-02-26T03:57:50;37.8;;;24.1;;
69917;SDS011;57203;42.672;23.334;2024-02-26T03:58:50;36.8;;;23.1;;
69917;SDS011;57203;42.672;23.334;2024-02-26T03:59:50;37.4;;;22.9;;
69917;SDS011;57203;42.672;23.334;2024-02-26T04:00:51;35.2;;;24.4;;
69917;SDS011;57203;42.672;23.334;2024-02-26T04:01:51;36.9;;;25.1;;
69917;SDS011;57203;42.672;23.334;2024-02-26T04:02:51;36.9;;;23.8;;
69917;SDS011;57203;42.672;23.334;2024-02-26T04:03:51;35.2;;;23.5;;
69917;SDS011;57203;42.672;23.334;2024-02-26T04:04:51;40.2;;;23.7;;
69917;SDS011;57203;42.672;23.334;2024-02-26T04:05:52;38.3;;;22.1;;
69917;SDS011;57203;42.672;23.334;2024-02-26T04:06:52;34.4;;;23.6;;
69917;SDS011;57203;42.672;23.334;2024-02-26T04:07:52;35.1;;;22.8;;
69917;SDS011;57203;42.672;23.334;2024-02-26T04:08:52;33.2;;;22.4;;
69917;SDS011;57203;42.672;23.334;2024-02-26T04:09:52;33.6;;;21.5;;
69917;SDS011;57203;42.672;23.334;2024-02-26T04:10:52;33.5;;;22.1;;
69917;SDS011;57203;42.672;23.334;2024-02-26T04:11:53;32.7;;;21.1;;
69917;SDS011;57203;42.672;23.334;2024-02-26T04:12:53;32.4;;;22.8;;
69917;SDS011;57203;42.672;23.334;2024-02-26T04:13:53;33.3;;;22.6;;
69917;SDS011;57203;42.672;23.334;2024-02-26T04:14:53;33.3;;;23.3;;
69917;SDS011;57203;42.672;23.334;2024-02-26T04:15:53;34.3;;;21.5;;
69917;SDS011;57203;42.672;23.334;2024-02-26T04:16:54;34.3;;;22.4;;
69917;SDS011;57203;42.672;23.334;2024-02-26T04:17:54;36.3;;;22.5;;
69917;SDS011;57203;42.672;23.334;2024-02-26T04:18:54;37.7;;;22.6;;
69917;SDS011;57203;42.672;23.334;2024-02-26T04:19:54;32.2;;;21.9;;
69917;SDS011;57203;42.672;23.334;2024-02-26T04:21:55;32.2;;;22.0;;
69917;SDS011;57203;42.672;23.334;2024-02-26T04:22:55;31.9;;;21.6;;
69917;SDS011;57203;42.672;23.334;2024-02-26T04:23:55;31.9;;;23.1;;
69917;SDS011;57203;42.672;23.334;2024-02-26T04:24:55;35.0;;;22.6;;
69917;SDS011;57203;42.672;23.334;2024-02-26T04:25:55;34.6;;;23.1;;
69917;SDS011;57203;42.672;23.334;2024-02-26T04:26:55;34.2;;;22.4;;
69917;SDS011;57203;42.672;23.334;2024-02-26T04:27:56;34.2;;;22.2;;
69917;SDS011;57203;42.672;23.334;2024-02-26T04:28:56;34.0;;;22.1;;
69917;SDS011;57203;42.672;23.334;2024-02-26T04:29:56;34.0;;;22.6;;
69917;SDS011;57203;42.672;23.334;2024-02-26T04:30:56;32.1;;;21.4;;
69917;SDS011;57203;42.672;23.334;2024-02-26T04:31:56;32.1;;;21.2;;
69917;SDS011;57203;42.672;23.334;2024-02-26T04:32:57;31.4;;;22.3;;
69917;SDS011;57203;42.672;23.334;2024-02-26T04:33:57;35.5;;;21.8;;
69917;SDS011;57203;42.672;23.334;2024-02-26T04:34:57;33.7;;;22.2;;
69917;SDS011;57203;42.672;23.334;2024-02-26T04:35:57;31.6;;;21.5;;
69917;SDS011;57203;42.672;23.334;2024-02-26T04:36:57;35.7;;;22.2;;
69917;SDS011;57203;42.672;23.334;2024-02-26T04:37:58;32.7;;;21.7;;
69917;SDS011;57203;42.672;23.334;2024-02-26T04:38:58;32.7;;;22.9;;
69917;SDS011;57203;42.672;23.334;2024-02-26T04:39:58;36.3;;;22.6;;
69917;SDS011;57203;42.672;23.334;2024-02-26T04:40:58;36.3;;;22.7;;
69917;SDS011;57203;42.672;23.334;2024-02-26T04:41:58;34.7;;;22.6;;
69917;SDS011;57203;42.672;23.334;2024-02-26T04:42:59;36.2;;;23.4;;
69917;SDS011;57203;42.672;23.334;2024-02-26T04:43:59;36.2;;;23.7;;
69917;SDS011;57203;42.672;23.334;2024-02-26T04:44:59;37.0;;;24.0;;
69917;SDS011;57203;42.672;23.334;2024-02-26T04:45:59;34.1;;;23.7;;
69917;SDS011;57203;42.672;23.334;2024-02-26T04:46:59;35.7;;;24.5;;
69917;SDS011;57203;42.672;23.334;2024-02-26T04:47:59;36.3;;;24.7;;
69917;SDS011;57203;42.672;23.334;2024-02-26T04:49:00;37.9;;;25.1;;
69917;SDS011;57203;42.672;23.334;2024-02-26T04:50:00;37.9;;;25.0;;
69917;SDS011;57203;42.672;23.334;2024-02-26T04:51:00;40.4;;;26.9;;
69917;SDS011;57203;42.672;23.334;2024-02-26T04:52:00;42.6;;;27.6;;
69917;SDS011;57203;42.672;23.334;2024-02-26T04:53:00;41.2;;;27.1;;
69917;SDS011;57203;42.672;23.334;2024-02-26T04:54:01;41.2;;;27.4;;
69917;SDS011;57203;42.672;23.334;2024-02-26T04:55:01;45.7;;;28.5;;
69917;SDS011;57203;42.672;23.334;2024-02-26T04:56:01;45.7;;;27.5;;
69917;SDS011;57203;42.672;23.334;2024-02-26T04:57:01;40.6;;;27.3;;
69917;SDS011;57203;42.672;23.334;2024-02-26T04:58:01;46.6;;;28.8;;
69917;SDS011;57203;42.672;23.334;2024-02-26T05:00:02;43.8;;;29.6;;
69917;SDS011;57203;42.672;23.334;2024-02-26T05:01:02;46.8;;;29.0;;
69917;SDS011;57203;42.672;23.334;2024-02-26T05:02:02;40.2;;;27.8;;
69917;SDS011;57203;42.672;23.334;2024-02-26T05:03:02;40.4;;;27.5;;
69917;SDS011;57203;42.672;23.334;2024-02-26T05:04:02;40.4;;;28.3;;
69917;SDS011;57203;42.672;23.334;2024-02-26T05:05:03;45.3;;;28.1;;
69917;SDS011;57203;42.672;23.334;2024-02-26T05:06:03;42.1;;;27.3;;
69917;SDS011;57203;42.672;23.334;2024-02-26T05:07:03;40.1;;;27.1;;
69917;SDS011;57203;42.672;23.334;2024-02-26T05:08:03;40.1;;;27.0;;
69917;SDS011;57203;42.672;23.334;2024-02-26T05:09:03;41.7;;;27.3;;
69917;SDS011;57203;42.672;23.334;2024-02-26T05:10:04;41.7;;;26.5;;
69917;SDS011;57203;42.672;23.334;2024-02-26T05:11:04;39.5;;;25.9;;
69917;SDS011;57203;42.672;23.334;2024-02-26T05:12:04;39.5;;;26.4;;
69917;SDS011;57203;42.672;23.334;2024-02-26T05:13:04;40.2;;;25.4;;
69917;SDS011;57203;42.672;23.334;2024-02-26T05:15:05;40.0;;;26.0;;
69917;SDS011;57203;42.672;23.334;2024-02-26T05:16:05;34.0;;;22.1;;
69917;SDS011;57203;42.672;23.334;2024-02-26T05:17:05;34.0;;;23.1;;
69917;SDS011;57203;42.672;23.334;2024-02-26T05:18:05;34.3;;;21.9;;
69917;SDS011;57203;42.672;23.334;2024-02-26T05:19:05;34.3;;;22.3;;
69917;SDS011;57203;42.672;23.334;2024-02-26T05:20:06;33.5;;;24.1;;
69917;SDS011;57203;42.672;23.334;2024-02-26T05:21:05;36.5;;;22.9;;
69917;SDS011;57203;42.672;23.334;2024-02-26T05:23:06;28.3;;;20.0;;
69917;SDS011;57203;42.672;23.334;2024-02-26T05:24:06;28.3;;;18.8;;
69917;SDS011;57203;42.672;23.334;2024-02-26T05:25:06;25.7;;;19.0;;
69917;SDS011;57203;42.672;23.334;2024-02-26T05:27:07;32.1;;;20.1;;
69917;SDS011;57203;42.672;23.334;2024-02-26T05:28:07;32.7;;;19.9;;
69917;SDS011;57203;42.672;23.334;2024-02-26T05:29:07;32.7;;;20.4;;
69917;SDS011;57203;42.672;23.334;2024-02-26T05:30:07;30.2;;;21.3;;
69917;SDS011;57203;42.672;23.334;2024-02-26T05:31:07;33.8;;;22.3;;
69917;SDS011;57203;42.672;23.334;2024-02-26T05:32:07;36.1;;;23.4;;
69917;SDS011;57203;42.672;23.334;2024-02-26T05:33:08;36.1;;;23.7;;
69917;SDS011;57203;42.672;23.334;2024-02-26T05:34:08;36.0;;;23.8;;
69917;SDS011;57203;42.672;23.334;2024-02-26T05:35:08;36.0;;;24.3;;
69917;SDS011;57203;42.672;23.334;2024-02-26T05:36:08;36.6;;;24.8;;
69917;SDS011;57203;42.672;23.334;2024-02-26T05:37:08;38.6;;;24.7;;
69917;SDS011;57203;42.672;23.334;2024-02-26T05:39:09;36.0;;;24.5;;
69917;SDS011;57203;42.672;23.334;2024-02-26T05:40:09;36.0;;;24.7;;
69917;SDS011;57203;42.672;23.334;2024-02-26T05:41:09;35.8;;;25.4;;
69917;SDS011;57203;42.672;23.334;2024-02-26T05:42:09;36.9;;;24.6;;
69917;SDS011;57203;42.672;23.334;2024-02-26T05:43:09;36.9;;;25.5;;
69917;SDS011;57203;42.672;23.334;2024-02-26T05:44:11;42.0;;;24.6;;
69917;SDS011;57203;42.672;23.334;2024-02-26T05:45:10;36.1;;;24.0;;
69917;SDS011;57203;42.672;23.334;2024-02-26T05:46:10;36.1;;;24.3;;
69917;SDS011;57203;42.672;23.334;2024-02-26T05:47:10;35.8;;;24.6;;
69917;SDS011;57203;42.672;23.334;2024-02-26T05:48:10;37.5;;;25.2;;
69917;SDS011;57203;42.672;23.334;2024-02-26T05:49:10;37.6;;;24.3;;
69917;SDS011;57203;42.672;23.334;2024-02-26T05:50:11;37.6;;;22.8;;
69917;SDS011;57203;42.672;23.334;2024-02-26T05:51:11;33.9;;;23.2;;
69917;SDS011;57203;42.672;23.334;2024-02-26T05:52:12;38.2;;;24.0;;
69917;SDS011;57203;42.672;23.334;2024-02-26T05:53:11;38.2;;;24.8;;
69917;SDS011;57203;42.672;23.334;2024-02-26T05:54:11;38.8;;;24.4;;
69917;SDS011;57203;42.672;23.334;2024-02-26T05:55:12;35.6;;;24.2;;
69917;SDS011;57203;42.672;23.334;2024-02-26T05:56:12;35.6;;;24.0;;
69917;SDS011;57203;42.672;23.334;2024-02-26T05:57:12;33.0;;;23.7;;
69917;SDS011;57203;42.672;23.334;2024-02-26T05:58:12;33.0;;;24.1;;
69917;SDS011;57203;42.672;23.334;2024-02-26T05:59:12;36.0;;;24.4;;
69917;SDS011;57203;42.672;23.334;2024-02-26T06:00:13;37.1;;;23.6;;
69917;SDS011;57203;42.672;23.334;2024-02-26T06:01:13;35.6;;;23.7;;
69917;SDS011;57203;42.672;23.334;2024-02-26T06:02:13;42.0;;;24.1;;
69917;SDS011;57203;42.672;23.334;2024-02-26T06:03:13;42.0;;;23.6;;
69917;SDS011;57203;42.672;23.334;2024-02-26T06:04:13;35.3;;;20.4;;
69917;SDS011;57203;42.672;23.334;2024-02-26T06:05:13;31.0;;;18.2;;
69917;SDS011;57203;42.672;23.334;2024-02-26T06:06:13;26.7;;;17.8;;
69917;SDS011;57203;42.672;23.334;2024-02-26T06:07:14;30.8;;;19.2;;
69917;SDS011;57203;42.672;23.334;2024-02-26T06:08:14;30.8;;;17.9;;
69917;SDS011;57203;42.672;23.334;2024-02-26T06:09:14;27.8;;;17.6;;
69917;SDS011;57203;42.672;23.334;2024-02-26T06:10:14;30.3;;;18.0;;
69917;SDS011;57203;42.672;23.334;2024-02-26T06:11:14;30.3;;;18.5;;
69917;SDS011;57203;42.672;23.334;2024-02-26T06:12:15;30.3;;;18.9;;